Time;durP1;ratioP1;P1;durP2;ratioP2;P2;SDS_P1;SDS_P2;PMS_P1;PMS_P2;Temp;Humidity;BMP_temperature;BMP_pressure;BME280_temperature;BME280_humidity;BME280_pressure;Samples;Min_cycle;Max_cycle;Signal;HPM_P1;HPM_P2
2023/06/03 00:02:03;;;;;;;8.73;6.87;;;15.10;80.70;;;;;;5070225;28;20486;-59
2023/06/03 00:04:30;;;;;;;24.57;7.40;;;15.10;80.20;;;;;;5051639;28;20497;-58
2023/06/03 00:06:59;;;;;;;11.23;6.87;;;15.10;80.90;;;;;;5077255;28;21081;-58
2023/06/03 00:09:26;;;;;;;9.60;6.10;;;15.10;81.00;;;;;;5070781;28;20598;-58
2023/06/03 00:11:53;;;;;;;8.93;6.80;;;15.10;81.10;;;;;;5051260;28;20483;-58
2023/06/03 00:14:20;;;;;;;10.30;6.90;;;15.10;81.10;;;;;;5078407;28;20475;-58
2023/06/03 00:16:47;;;;;;;12.97;7.07;;;15.00;81.50;;;;;;5073545;28;20482;-58
2023/06/03 00:19:15;;;;;;;12.47;8.00;;;15.00;81.30;;;;;;5073967;28;20466;-58
2023/06/03 00:21:45;;;;;;;9.73;6.90;;;15.00;81.30;;;;;;5054889;28;20490;-58
2023/06/03 00:24:14;;;;;;;10.90;6.07;;;15.00;81.30;;;;;;5065133;28;20502;-58
2023/06/03 00:26:41;;;;;;;17.87;6.27;;;15.00;82.00;;;;;;5059339;28;20478;-59
2023/06/03 00:29:08;;;;;;;7.73;6.43;;;14.90;81.10;;;;;;5079528;28;20478;-58
2023/06/03 00:31:35;;;;;;;10.33;6.57;;;14.90;81.40;;;;;;5064009;28;20483;-58
2023/06/03 00:34:01;;;;;;;11.83;7.30;;;14.90;81.20;;;;;;5067925;28;20986;-58
2023/06/03 00:36:28;;;;;;;10.60;6.60;;;14.90;81.20;;;;;;5057249;28;20497;-58
2023/06/03 00:38:55;;;;;;;10.40;6.53;;;14.90;81.60;;;;;;5079737;28;20486;-58
2023/06/03 00:41:23;;;;;;;8.50;6.63;;;14.80;81.50;;;;;;5059360;28;20483;-59
2023/06/03 00:43:50;;;;;;;9.70;6.50;;;14.80;81.50;;;;;;5050911;28;20880;-58
2023/06/03 00:46:20;;;;;;;8.63;7.70;;;14.80;81.80;;;;;;5059567;28;20477;-58
2023/06/03 00:48:47;;;;;;;14.10;7.03;;;14.70;81.30;;;;;;5069320;28;21001;-58
2023/06/03 00:51:15;;;;;;;10.73;7.70;;;14.70;81.90;;;;;;5059965;28;20491;-59
2023/06/03 00:53:42;;;;;;;12.20;7.30;;;14.70;82.00;;;;;;5072244;28;21064;-58
2023/06/03 00:56:09;;;;;;;8.20;6.60;;;14.70;82.00;;;;;;5041218;28;20487;-59
2023/06/03 00:58:37;;;;;;;12.43;6.80;;;14.60;82.30;;;;;;5080799;28;20478;-58
2023/06/03 01:01:05;;;;;;;7.33;6.40;;;14.60;82.60;;;;;;5069649;28;20482;-58
2023/06/03 01:03:32;;;;;;;16.57;7.07;;;14.50;82.20;;;;;;5068919;28;20489;-58
2023/06/03 01:06:07;;;;;;;9.63;7.10;;;14.50;82.70;;;;;;5058899;28;20478;-58
2023/06/03 01:08:43;;;;;;;9.33;7.13;;;14.50;82.70;;;;;;5057980;28;20501;-58
2023/06/03 01:11:16;;;;;;;11.60;7.07;;;14.50;82.70;;;;;;5061271;28;20880;-59
2023/06/03 01:13:50;;;;;;;11.40;7.73;;;14.40;82.60;;;;;;5066071;28;20478;-58
2023/06/03 01:16:21;;;;;;;7.23;6.50;;;14.40;82.60;;;;;;5068865;28;20848;-58
2023/06/03 01:18:49;;;;;;;10.00;7.20;;;14.30;82.80;;;;;;5066425;28;21033;-58
2023/06/03 01:21:16;;;;;;;8.80;6.60;;;14.20;83.00;;;;;;5066790;28;20561;-58
2023/06/03 01:23:46;;;;;;;12.27;7.90;;;14.10;83.30;;;;;;5067149;28;20962;-58
2023/06/03 01:26:13;;;;;;;15.73;8.37;;;14.00;83.10;;;;;;5071574;28;20475;-59
2023/06/03 01:28:40;;;;;;;14.93;7.50;;;14.00;83.60;;;;;;5065770;28;20481;-59
2023/06/03 01:31:07;;;;;;;11.70;7.53;;;14.00;83.60;;;;;;5062005;28;20905;-58
2023/06/03 01:33:36;;;;;;;11.70;6.23;;;13.90;83.00;;;;;;5056305;28;20896;-59
2023/06/03 01:36:05;;;;;;;9.27;7.27;;;13.90;83.90;;;;;;5051264;28;21153;-59
2023/06/03 01:38:33;;;;;;;13.40;7.63;;;13.90;84.20;;;;;;5062287;28;20874;-58
2023/06/03 01:41:03;;;;;;;12.67;7.70;;;13.80;84.30;;;;;;5042574;28;20474;-58
2023/06/03 01:43:31;;;;;;;9.50;6.47;;;13.80;84.50;;;;;;5066423;28;20902;-58
2023/06/03 01:45:58;;;;;;;12.40;7.87;;;13.80;84.30;;;;;;5068690;28;20590;-58
2023/06/03 01:48:25;;;;;;;10.37;7.70;;;13.80;84.70;;;;;;5040725;28;20834;-58
2023/06/03 01:50:51;;;;;;;7.53;6.63;;;13.80;84.80;;;;;;5056967;28;21132;-58
2023/06/03 01:53:20;;;;;;;21.13;8.03;;;13.80;84.90;;;;;;5064528;28;20632;-58
2023/06/03 01:55:47;;;;;;;9.97;7.30;;;13.70;84.40;;;;;;5063781;28;20490;-58
2023/06/03 01:58:16;;;;;;;9.80;7.00;;;13.70;84.50;;;;;;5057839;28;20485;-58
2023/06/03 02:00:43;;;;;;;8.03;6.30;;;13.70;84.60;;;;;;5019607;28;20491;-58
2023/06/03 02:03:10;;;;;;;9.43;6.57;;;13.70;85.00;;;;;;5053149;28;20489;-58
2023/06/03 02:05:37;;;;;;;11.10;7.20;;;13.70;85.20;;;;;;5038422;28;20497;-58
2023/06/03 02:08:03;;;;;;;11.80;6.67;;;13.70;85.00;;;;;;5050298;28;20490;-57
2023/06/03 02:10:30;;;;;;;13.93;7.27;;;13.60;84.60;;;;;;5047652;28;21071;-58
2023/06/03 02:12:57;;;;;;;12.67;7.00;;;13.60;84.80;;;;;;5066380;28;20767;-58
2023/06/03 02:15:25;;;;;;;15.67;7.40;;;13.60;85.30;;;;;;5062706;28;20770;-57
2023/06/03 02:17:52;;;;;;;8.43;6.20;;;13.60;85.00;;;;;;5061621;28;20943;-58
2023/06/03 02:20:20;;;;;;;13.93;7.67;;;13.50;85.40;;;;;;5056803;28;20466;-57
2023/06/03 02:22:47;;;;;;;11.57;7.53;;;13.40;85.70;;;;;;5058486;28;20571;-58
2023/06/03 02:25:13;;;;;;;13.80;7.20;;;13.40;85.90;;;;;;5055686;28;20485;-58
2023/06/03 02:27:40;;;;;;;11.00;7.27;;;13.40;85.90;;;;;;5060163;28;20482;-58
2023/06/03 02:30:10;;;;;;;10.00;7.60;;;13.40;85.90;;;;;;5050197;28;20493;-58
2023/06/03 02:32:38;;;;;;;8.53;6.33;;;13.40;85.80;;;;;;5032120;28;21099;-58
2023/06/03 02:35:05;;;;;;;13.20;7.40;;;13.40;85.70;;;;;;5062430;28;20483;-57
2023/06/03 02:37:32;;;;;;;11.60;6.67;;;13.40;85.70;;;;;;5063880;28;20510;-58
2023/06/03 02:39:59;;;;;;;12.40;6.97;;;13.30;85.70;;;;;;5042483;28;20485;-58
2023/06/03 02:42:26;;;;;;;11.03;7.33;;;13.40;85.80;;;;;;5051618;28;20485;-58
2023/06/03 02:44:53;;;;;;;13.97;7.10;;;13.40;85.80;;;;;;5062164;28;20764;-58
2023/06/03 02:47:19;;;;;;;15.50;6.97;;;13.40;85.60;;;;;;5052378;28;20533;-58
2023/06/03 02:49:49;;;;;;;13.13;6.43;;;13.40;85.50;;;;;;5060571;28;20476;-58
2023/06/03 02:52:16;;;;;;;11.10;6.30;;;13.50;85.60;;;;;;5044137;28;20497;-58
2023/06/03 02:54:42;;;;;;;11.07;6.20;;;13.50;85.50;;;;;;5061540;28;20485;-58
2023/06/03 02:57:10;;;;;;;12.43;6.53;;;13.50;85.70;;;;;;5054872;28;20977;-58
2023/06/03 02:59:37;;;;;;;16.83;7.13;;;13.50;85.70;;;;;;5077711;28;20501;-58
2023/06/03 03:02:04;;;;;;;13.17;7.07;;;13.50;85.10;;;;;;5059949;28;20532;-58
2023/06/03 03:04:33;;;;;;;10.10;6.73;;;13.40;85.80;;;;;;5066718;28;20484;-58
2023/06/03 03:07:02;;;;;;;13.00;6.07;;;13.40;85.90;;;;;;5065946;28;22156;-58
2023/06/03 03:09:29;;;;;;;12.23;7.23;;;13.40;86.10;;;;;;5061884;28;20511;-58
2023/06/03 03:11:56;;;;;;;10.50;6.90;;;13.40;86.30;;;;;;5066165;28;20470;-58
2023/06/03 03:14:23;;;;;;;16.07;7.13;;;13.40;86.20;;;;;;5044207;28;20477;-58
2023/06/03 03:16:50;;;;;;;13.33;6.83;;;13.60;86.30;;;;;;5059030;28;20760;-58
2023/06/03 03:19:17;;;;;;;7.63;6.80;;;13.40;86.20;;;;;;5067918;28;20474;-58
2023/06/03 03:21:44;;;;;;;21.93;8.23;;;13.40;85.90;;;;;;5050011;28;20987;-58
2023/06/03 03:24:13;;;;;;;12.63;7.40;;;13.40;86.50;;;;;;5078214;28;20469;-58
2023/06/03 03:26:40;;;;;;;12.67;6.27;;;13.40;86.20;;;;;;5069263;28;20555;-58
2023/06/03 03:29:09;;;;;;;15.83;6.50;;;13.40;86.40;;;;;;5072034;28;22643;-58
2023/06/03 03:31:36;;;;;;;8.90;6.77;;;13.40;86.20;;;;;;5067932;28;20821;-58
2023/06/03 03:34:07;;;;;;;12.17;5.57;;;13.30;86.30;;;;;;5059923;28;20477;-58
2023/06/03 03:36:36;;;;;;;11.07;6.47;;;13.30;86.70;;;;;;5071395;28;20887;-58
2023/06/03 03:39:04;;;;;;;10.13;6.37;;;13.30;87.00;;;;;;5064682;28;20835;-58
2023/06/03 03:41:32;;;;;;;13.73;6.50;;;13.30;86.80;;;;;;5073378;28;20478;-57
2023/06/03 03:44:00;;;;;;;7.40;5.57;;;13.30;86.70;;;;;;5070389;28;20991;-58
2023/06/03 03:46:26;;;;;;;15.70;6.47;;;13.30;86.20;;;;;;5070136;28;20479;-57
2023/06/03 03:48:53;;;;;;;14.10;6.20;;;13.30;86.80;;;;;;5068470;28;20560;-58
2023/06/03 03:51:20;;;;;;;14.47;6.90;;;13.30;86.80;;;;;;5048803;28;20465;-58
2023/06/03 03:53:49;;;;;;;12.87;7.00;;;13.30;87.00;;;;;;5076922;28;20489;-58
2023/06/03 03:56:18;;;;;;;7.53;6.00;;;13.30;87.10;;;;;;5065276;28;20585;-58
2023/06/03 03:58:48;;;;;;;30.17;6.80;;;13.20;87.20;;;;;;5061570;28;20501;-58
2023/06/03 04:01:17;;;;;;;12.40;7.03;;;13.20;87.10;;;;;;5026450;28;20998;-58
2023/06/03 04:03:46;;;;;;;11.00;6.30;;;13.20;87.20;;;;;;5063396;28;21037;-58
2023/06/03 04:06:15;;;;;;;12.03;7.23;;;13.20;87.60;;;;;;5063734;28;20506;-58
2023/06/03 04:08:45;;;;;;;10.17;5.80;;;13.20;87.90;;;;;;5060763;28;20496;-58
2023/06/03 04:11:20;;;;;;;13.27;6.30;;;13.20;87.60;;;;;;5053779;28;20485;-58
2023/06/03 04:13:49;;;;;;;8.03;5.87;;;13.30;87.70;;;;;;5049988;28;21177;-58
2023/06/03 04:16:42;;;;;;;10.87;6.20;;;13.20;87.70;;;;;;5068771;28;20833;-58
2023/06/03 04:19:14;;;;;;;15.80;7.00;;;13.30;87.80;;;;;;5057245;28;20484;-58
2023/06/03 04:21:41;;;;;;;7.97;6.27;;;13.20;88.10;;;;;;5078056;28;20486;-58
2023/06/03 04:24:08;;;;;;;12.43;5.70;;;13.20;88.30;;;;;;5055326;28;20496;-58
2023/06/03 04:26:36;;;;;;;10.67;5.80;;;13.20;89.40;;;;;;5071818;28;20815;-58
2023/06/03 04:29:04;;;;;;;11.43;5.93;;;13.20;88.30;;;;;;5065215;28;20775;-58
2023/06/03 04:31:31;;;;;;;7.73;5.90;;;13.20;88.80;;;;;;5057485;28;21021;-58
2023/06/03 04:33:59;;;;;;;15.17;5.90;;;13.30;89.20;;;;;;5063258;28;20990;-58
2023/06/03 04:36:25;;;;;;;16.80;7.63;;;13.30;89.30;;;;;;5059261;28;21200;-58
2023/06/03 04:38:52;;;;;;;10.00;4.57;;;13.30;89.40;;;;;;5065707;28;20494;-58
2023/06/03 04:41:19;;;;;;;10.60;6.03;;;13.40;89.30;;;;;;5076067;28;20471;-58
2023/06/03 04:43:46;;;;;;;9.33;5.50;;;13.50;89.70;;;;;;5059160;28;20485;-58
2023/06/03 04:46:14;;;;;;;19.90;6.37;;;13.70;89.70;;;;;;5068153;28;20494;-58
2023/06/03 04:48:45;;;;;;;9.60;5.30;;;13.70;89.50;;;;;;5065119;28;20486;-58
2023/06/03 04:51:12;;;;;;;11.43;6.40;;;13.80;89.50;;;;;;5036680;28;20852;-58
2023/06/03 04:53:41;;;;;;;12.40;5.70;;;14.00;89.60;;;;;;5065378;28;20510;-58
2023/06/03 04:56:08;;;;;;;11.57;6.00;;;14.10;89.50;;;;;;5060796;28;20481;-58
2023/06/03 04:58:36;;;;;;;11.80;4.80;;;14.20;89.10;;;;;;5071697;28;20485;-58
2023/06/03 05:01:04;;;;;;;16.37;5.53;;;14.30;89.00;;;;;;5048742;28;20478;-58
2023/06/03 05:03:35;;;;;;;8.43;5.63;;;14.30;88.80;;;;;;5072149;28;20588;-59
2023/06/03 05:06:04;;;;;;;12.17;4.43;;;14.50;89.10;;;;;;5050651;28;20522;-58
2023/06/03 05:08:30;;;;;;;8.97;5.47;;;14.60;89.30;;;;;;5071893;28;20494;-58
2023/06/03 05:10:57;;;;;;;11.17;5.80;;;14.70;88.70;;;;;;5072132;28;20772;-58
2023/06/03 05:13:24;;;;;;;6.10;5.17;;;14.80;87.50;;;;;;5056147;28;20481;-58
2023/06/03 05:15:51;;;;;;;9.83;5.90;;;14.90;88.40;;;;;;5055000;28;20986;-58
2023/06/03 05:18:17;;;;;;;12.30;5.60;;;14.90;88.80;;;;;;5059156;28;20996;-58
2023/06/03 05:20:46;;;;;;;11.07;5.77;;;14.90;87.80;;;;;;5052521;28;20481;-58
2023/06/03 05:23:13;;;;;;;18.73;6.30;;;15.00;88.80;;;;;;5070276;28;20469;-59
2023/06/03 05:25:40;;;;;;;9.23;5.40;;;15.00;88.70;;;;;;5050705;28;20482;-58
2023/06/03 05:28:07;;;;;;;13.40;5.37;;;15.00;88.30;;;;;;5058459;28;20481;-58
2023/06/03 05:30:33;;;;;;;13.50;5.93;;;15.10;88.10;;;;;;5070496;28;20482;-58
2023/06/03 05:33:00;;;;;;;11.20;4.93;;;15.10;89.20;;;;;;5056484;28;21063;-58
2023/06/03 05:35:27;;;;;;;11.83;6.00;;;15.20;88.50;;;;;;5063321;28;20479;-58
2023/06/03 05:37:55;;;;;;;14.63;5.37;;;15.20;88.50;;;;;;5072095;28;20474;-58
2023/06/03 05:40:22;;;;;;;17.57;6.00;;;15.30;88.60;;;;;;5063076;28;20779;-58
2023/06/03 05:42:49;;;;;;;9.67;5.60;;;15.30;88.50;;;;;;5062484;28;20479;-58
2023/06/03 05:45:16;;;;;;;8.60;6.17;;;15.40;88.70;;;;;;5049021;28;20478;-58
2023/06/03 05:47:43;;;;;;;9.57;4.90;;;15.40;88.30;;;;;;5060480;28;20490;-58
2023/06/03 05:50:12;;;;;;;5.77;4.77;;;15.40;88.00;;;;;;5049915;28;20474;-58
2023/06/03 05:52:38;;;;;;;9.43;5.20;;;15.50;88.00;;;;;;5054082;28;20518;-58
2023/06/03 05:55:08;;;;;;;8.43;5.47;;;15.60;88.70;;;;;;5073729;28;20477;-58
2023/06/03 05:57:35;;;;;;;9.23;5.73;;;15.80;87.60;;;;;;5057682;28;20485;-58
2023/06/03 06:00:02;;;;;;;12.00;5.60;;;15.80;87.60;;;;;;5060217;28;20482;-58
2023/06/03 06:02:29;;;;;;;7.83;5.67;;;15.80;88.60;;;;;;5061215;28;21200;-58
2023/06/03 06:04:56;;;;;;;18.13;5.87;;;15.90;87.40;;;;;;5062244;28;20513;-58
2023/06/03 06:07:23;;;;;;;10.03;5.83;;;15.90;87.60;;;;;;5059807;28;20490;-58
2023/06/03 06:09:50;;;;;;;9.60;5.93;;;16.00;87.90;;;;;;5057233;28;20487;-58
2023/06/03 06:12:18;;;;;;;7.40;5.50;;;16.10;87.80;;;;;;5066142;28;21075;-58
2023/06/03 06:14:44;;;;;;;7.90;5.20;;;16.20;87.40;;;;;;5069679;28;20478;-58
2023/06/03 06:17:16;;;;;;;8.17;5.20;;;16.30;87.50;;;;;;5060825;28;20478;-58
2023/06/03 06:19:43;;;;;;;10.97;5.50;;;16.50;87.70;;;;;;5054702;28;20483;-58
2023/06/03 06:22:09;;;;;;;10.00;5.20;;;16.60;86.90;;;;;;5049231;28;20899;-58
2023/06/03 06:24:37;;;;;;;5.67;5.17;;;16.80;87.50;;;;;;5058912;28;20481;-58
2023/06/03 06:27:05;;;;;;;7.33;5.50;;;16.90;86.30;;;;;;5060855;28;20485;-58
2023/06/03 06:29:34;;;;;;;9.30;5.40;;;17.00;86.20;;;;;;5060390;28;20492;-58
2023/06/03 06:32:01;;;;;;;5.03;4.20;;;17.00;86.20;;;;;;5064700;28;20478;-58
2023/06/03 06:34:29;;;;;;;10.20;6.13;;;17.20;86.80;;;;;;5063973;28;20501;-58
2023/06/03 06:36:57;;;;;;;9.30;5.60;;;17.30;85.30;;;;;;5051750;28;20867;-58
2023/06/03 06:39:48;;;;;;;11.37;6.00;;;17.30;86.00;;;;;;5053381;28;20472;-58
2023/06/03 06:42:24;;;;;;;8.60;5.03;;;17.40;84.70;;;;;;5044932;28;20514;-58
2023/06/03 06:44:52;;;;;;;9.47;4.90;;;17.40;83.90;;;;;;5060259;28;20478;-58
2023/06/03 06:47:22;;;;;;;11.60;6.00;;;17.40;84.00;;;;;;5050726;28;20482;-58
2023/06/03 06:49:50;;;;;;;8.93;5.10;;;17.50;83.70;;;;;;5072216;28;20553;-58
2023/06/03 06:52:19;;;;;;;7.70;4.90;;;17.50;83.30;;;;;;5061792;28;20481;-58
2023/06/03 06:54:46;;;;;;;13.90;6.70;;;17.60;84.60;;;;;;5064779;28;20472;-58
2023/06/03 06:57:21;;;;;;;14.40;6.93;;;17.80;83.40;;;;;;5059310;28;20482;-58
2023/06/03 06:59:48;;;;;;;7.60;5.43;;;18.00;84.90;;;;;;5060455;28;20865;-58
2023/06/03 07:02:16;;;;;;;14.67;6.03;;;18.10;82.50;;;;;;5048294;28;20551;-58
2023/06/03 07:04:43;;;;;;;15.87;6.93;;;18.40;81.30;;;;;;5040531;28;20483;-58
2023/06/03 07:07:10;;;;;;;8.27;5.40;;;18.40;82.50;;;;;;5052232;28;20484;-58
2023/06/03 07:09:37;;;;;;;12.03;6.30;;;18.40;82.00;;;;;;5074112;28;20476;-58
2023/06/03 07:12:04;;;;;;;11.87;5.47;;;18.60;81.00;;;;;;5068108;28;20491;-58
2023/06/03 07:14:31;;;;;;;11.97;5.10;;;18.80;81.40;;;;;;5048996;28;20524;-58
2023/06/03 07:16:58;;;;;;;10.97;5.47;;;18.90;80.70;;;;;;5079316;28;20476;-58
2023/06/03 07:19:33;;;;;;;13.60;5.27;;;19.00;80.80;;;;;;5055773;28;21622;-60
2023/06/03 07:22:01;;;;;;;10.30;5.83;;;19.00;80.60;;;;;;4971406;28;20490;-58
2023/06/03 07:24:28;;;;;;;11.00;5.73;;;19.30;80.00;;;;;;5041224;28;20486;-59
2023/06/03 07:26:55;;;;;;;9.17;4.97;;;19.30;80.40;;;;;;5035101;28;20605;-59
2023/06/03 07:29:22;;;;;;;10.43;6.23;;;19.40;79.90;;;;;;5043316;28;20906;-59
2023/06/03 07:31:49;;;;;;;8.53;6.07;;;19.50;80.60;;;;;;5065311;28;20477;-59
2023/06/03 07:34:21;;;;;;;13.00;6.30;;;19.60;80.00;;;;;;5055361;28;22537;-59
2023/06/03 07:36:52;;;;;;;9.60;5.40;;;19.70;80.20;;;;;;5043590;28;20888;-59
2023/06/03 07:39:21;;;;;;;59.10;7.83;;;20.00;80.10;;;;;;5038701;28;20483;-59
2023/06/03 07:41:51;;;;;;;13.30;5.20;;;20.10;79.10;;;;;;5048234;28;20728;-59
2023/06/03 07:44:33;;;;;;;13.73;5.70;;;20.20;79.30;;;;;;5040034;28;20550;-59
2023/06/03 07:47:00;;;;;;;9.27;5.43;;;20.40;80.10;;;;;;5046755;28;20482;-58
2023/06/03 07:49:27;;;;;;;10.63;6.40;;;20.60;79.50;;;;;;5047726;28;20483;-58
2023/06/03 07:51:55;;;;;;;10.00;5.77;;;20.80;79.70;;;;;;5045232;28;20471;-58
2023/06/03 07:54:22;;;;;;;11.40;5.77;;;21.00;78.90;;;;;;5041019;28;20501;-58
2023/06/03 07:56:50;;;;;;;7.97;5.20;;;21.20;79.20;;;;;;5043341;28;20469;-58
2023/06/03 07:59:20;;;;;;;8.13;5.53;;;21.40;78.00;;;;;;5060769;28;20486;-58
2023/06/03 08:01:50;;;;;;;23.13;6.20;;;21.50;77.80;;;;;;5041536;28;20758;-58
2023/06/03 08:04:29;;;;;;;20.93;5.80;;;21.70;77.80;;;;;;5039375;28;20566;-58
2023/06/03 08:06:59;;;;;;;8.80;5.83;;;21.80;78.30;;;;;;5050007;28;21416;-58
2023/06/03 08:09:28;;;;;;;10.00;5.80;;;21.80;76.40;;;;;;5038183;28;20876;-58
2023/06/03 08:11:56;;;;;;;9.87;5.87;;;22.00;78.20;;;;;;5019267;28;20501;-58
2023/06/03 08:14:24;;;;;;;9.53;5.20;;;22.10;76.80;;;;;;5051150;28;20506;-58
2023/06/03 08:16:52;;;;;;;5.47;4.83;;;22.10;76.50;;;;;;5054297;28;20480;-58
2023/06/03 08:19:19;;;;;;;11.20;4.67;;;22.20;77.50;;;;;;5060883;28;20467;-59
2023/06/03 08:21:46;;;;;;;7.83;5.27;;;22.30;75.80;;;;;;5060244;28;20566;-59
2023/06/03 08:24:14;;;;;;;12.23;5.60;;;22.40;76.90;;;;;;5049621;28;21044;-59
2023/06/03 08:26:41;;;;;;;8.67;6.33;;;22.50;76.60;;;;;;5035107;28;20886;-60
2023/06/03 08:29:08;;;;;;;14.37;6.73;;;22.60;75.80;;;;;;5057262;28;21628;-60
2023/06/03 08:31:36;;;;;;;7.97;5.63;;;22.70;76.20;;;;;;5043313;28;20495;-61
2023/06/03 08:34:04;;;;;;;7.83;5.27;;;22.90;76.60;;;;;;5045142;28;20531;-61
2023/06/03 08:36:31;;;;;;;18.23;5.77;;;23.10;76.30;;;;;;5047717;28;20495;-61
2023/06/03 08:38:58;;;;;;;7.83;6.13;;;23.30;76.10;;;;;;5059851;28;20477;-60
2023/06/03 08:41:37;;;;;;;9.87;5.70;;;23.40;74.30;;;;;;5051835;28;20471;-60
2023/06/03 08:44:10;;;;;;;9.23;6.10;;;23.50;73.40;;;;;;5026468;28;20474;-60
2023/06/03 08:46:45;;;;;;;9.23;5.77;;;23.50;74.20;;;;;;5038652;28;20490;-60
2023/06/03 08:49:21;;;;;;;7.73;5.30;;;23.50;73.90;;;;;;5043427;28;20473;-60
2023/06/03 08:51:52;;;;;;;15.60;6.80;;;23.70;76.30;;;;;;5006805;28;20480;-59
2023/06/03 08:54:21;;;;;;;8.13;5.70;;;23.80;74.60;;;;;;5014931;28;20522;-58
2023/06/03 08:56:57;;;;;;;18.93;6.23;;;23.90;74.40;;;;;;5056826;28;20915;-59
2023/06/03 08:59:26;;;;;;;10.50;6.17;;;23.90;75.10;;;;;;5009142;28;20499;-59
2023/06/03 09:01:56;;;;;;;18.57;6.93;;;24.00;73.70;;;;;;5013832;28;20485;-59
2023/06/03 09:04:24;;;;;;;11.37;6.00;;;24.10;73.40;;;;;;5039127;28;20843;-59
2023/06/03 09:06:51;;;;;;;6.97;4.57;;;24.00;72.70;;;;;;5032777;28;20483;-59
2023/06/03 09:09:20;;;;;;;10.10;5.63;;;24.00;75.20;;;;;;5036007;28;21991;-59
2023/06/03 09:11:49;;;;;;;6.77;5.47;;;24.10;72.90;;;;;;5068072;28;20480;-59
2023/06/03 09:14:18;;;;;;;10.70;5.57;;;24.10;73.00;;;;;;5053725;28;20490;-59
2023/06/03 09:16:45;;;;;;;7.07;5.77;;;24.20;73.70;;;;;;5065994;28;20528;-59
2023/06/03 09:19:12;;;;;;;9.70;6.07;;;24.20;72.90;;;;;;5052745;28;21759;-59
2023/06/03 09:21:42;;;;;;;7.40;4.83;;;24.40;73.80;;;;;;5071085;28;20843;-59
2023/06/03 09:24:11;;;;;;;11.10;5.83;;;24.30;73.10;;;;;;5070049;28;20484;-59
2023/06/03 09:26:38;;;;;;;11.00;7.10;;;24.50;73.20;;;;;;5065825;28;20504;-59
2023/06/03 09:29:06;;;;;;;9.83;5.60;;;24.40;71.80;;;;;;5063589;28;20475;-60
2023/06/03 09:31:34;;;;;;;9.77;5.80;;;24.50;74.50;;;;;;5059043;28;20537;-59
2023/06/03 09:34:02;;;;;;;14.13;6.20;;;24.70;73.40;;;;;;5075619;28;20810;-59
2023/06/03 09:36:30;;;;;;;18.90;7.07;;;25.00;71.50;;;;;;5068256;28;20471;-59
2023/06/03 09:38:57;;;;;;;7.87;6.33;;;25.00;72.00;;;;;;5037303;28;20532;-59
2023/06/03 09:41:26;;;;;;;11.40;6.20;;;25.10;72.00;;;;;;5058046;28;20472;-59
2023/06/03 09:43:58;;;;;;;8.00;5.93;;;25.10;71.20;;;;;;5064790;28;20641;-59
2023/06/03 09:46:26;;;;;;;7.77;5.87;;;25.00;72.10;;;;;;5049108;28;20550;-59
2023/06/03 09:48:54;;;;;;;8.33;5.83;;;25.10;73.30;;;;;;5062495;28;21033;-60
2023/06/03 09:51:41;;;;;;;14.83;6.30;;;25.20;72.40;;;;;;5064619;28;20472;-60
2023/06/03 09:54:12;;;;;;;11.40;6.00;;;25.40;73.20;;;;;;5046487;28;20478;-59
2023/06/03 09:56:39;;;;;;;8.73;5.60;;;25.50;73.20;;;;;;5056765;28;21244;-60
2023/06/03 09:59:17;;;;;;;7.00;5.90;;;25.70;71.50;;;;;;5064037;28;20555;-59
2023/06/03 10:01:47;;;;;;;10.23;5.80;;;25.80;73.70;;;;;;5045078;28;20638;-59
2023/06/03 10:04:18;;;;;;;7.97;5.77;;;26.00;72.50;;;;;;5056220;28;20543;-60
2023/06/03 10:06:45;;;;;;;7.20;5.30;;;26.10;72.30;;;;;;5061364;28;20465;-60
2023/06/03 10:09:22;;;;;;;10.90;5.37;;;26.20;71.30;;;;;;5053380;28;20491;-60
2023/06/03 10:11:50;;;;;;;13.77;8.03;;;26.30;72.00;;;;;;5051909;28;20487;-60
2023/06/03 10:14:22;;;;;;;11.30;6.43;;;26.30;70.10;;;;;;5045987;28;20666;-60
2023/06/03 10:17:06;;;;;;;9.83;6.10;;;26.40;72.10;;;;;;5046631;28;20488;-60
2023/06/03 10:19:36;;;;;;;13.87;7.80;;;26.40;70.90;;;;;;5068845;28;20481;-60
2023/06/03 10:22:04;;;;;;;11.07;7.20;;;26.70;70.40;;;;;;5072215;28;20484;-60
2023/06/03 10:24:32;;;;;;;9.80;6.30;;;26.70;70.30;;;;;;5045792;28;20472;-60
2023/06/03 10:26:59;;;;;;;10.83;7.40;;;26.70;69.50;;;;;;5060922;28;20486;-60
2023/06/03 10:29:26;;;;;;;10.50;5.83;;;26.80;70.70;;;;;;5059558;28;20489;-60
2023/06/03 10:31:55;;;;;;;7.13;5.90;;;27.00;72.70;;;;;;5063123;28;20829;-60
2023/06/03 10:34:22;;;;;;;12.50;6.80;;;26.80;70.60;;;;;;5044920;28;20526;-60
2023/06/03 10:36:52;;;;;;;13.20;6.90;;;26.80;71.40;;;;;;5062420;28;20476;-60
2023/06/03 10:39:20;;;;;;;8.00;7.20;;;26.80;69.50;;;;;;5060754;28;20668;-60
2023/06/03 10:41:48;;;;;;;9.10;6.30;;;26.90;69.80;;;;;;5051884;28;20481;-60
2023/06/03 10:44:16;;;;;;;13.03;6.33;;;27.10;69.70;;;;;;5073148;28;20477;-60
2023/06/03 10:46:51;;;;;;;10.43;6.90;;;27.20;72.70;;;;;;5050983;28;20477;-60
2023/06/03 10:49:20;;;;;;;8.17;5.80;;;27.40;69.00;;;;;;5029642;28;21185;-60
2023/06/03 10:51:59;;;;;;;14.07;7.17;;;27.30;70.60;;;;;;5055219;28;20483;-60
2023/06/03 10:54:35;;;;;;;7.67;6.20;;;27.30;67.80;;;;;;5053174;28;20480;-60
2023/06/03 10:57:06;;;;;;;7.17;6.47;;;27.10;68.30;;;;;;5062925;28;20997;-60
2023/06/03 10:59:41;;;;;;;12.03;6.47;;;27.20;70.80;;;;;;5060079;28;20546;-60
2023/06/03 11:02:08;;;;;;;7.60;6.80;;;27.40;71.00;;;;;;5060865;28;20851;-60
2023/06/03 11:04:36;;;;;;;9.60;8.00;;;27.40;67.50;;;;;;5061654;28;20484;-60
2023/06/03 11:07:06;;;;;;;10.73;6.90;;;27.40;68.60;;;;;;5066401;28;20477;-60
2023/06/03 11:09:35;;;;;;;10.33;6.57;;;27.40;69.90;;;;;;5060522;28;20496;-60
2023/06/03 11:12:09;;;;;;;8.20;6.40;;;27.30;70.20;;;;;;5045822;28;20455;-60
2023/06/03 11:14:55;;;;;;;12.97;7.07;;;27.10;70.20;;;;;;5055697;28;20508;-60
2023/06/03 11:17:26;;;;;;;7.60;6.80;;;27.20;69.60;;;;;;5071064;28;20842;-60
2023/06/03 11:19:55;;;;;;;8.80;6.43;;;27.40;69.40;;;;;;5066685;28;20484;-60
2023/06/03 11:22:43;;;;;;;8.83;6.60;;;27.40;69.90;;;;;;5058032;28;20847;-60
2023/06/03 11:25:29;;;;;;;11.20;6.23;;;27.50;69.50;;;;;;5055700;28;20485;-60
2023/06/03 11:28:34;;;;;;;12.47;7.50;;;27.50;69.30;;;;;;5067219;28;20843;-61
2023/06/03 11:31:03;;;;;;;9.33;7.07;;;27.70;68.90;;;;;;5062094;28;20543;-61
2023/06/03 11:33:31;;;;;;;8.77;7.00;;;27.90;70.30;;;;;;5054271;28;20562;-61
2023/06/03 11:35:57;;;;;;;11.03;7.37;;;27.60;68.40;;;;;;5063797;28;20489;-61
2023/06/03 11:39:00;;;;;;;8.60;6.60;;;27.70;69.70;;;;;;5069373;28;20481;-62
2023/06/03 11:42:05;;;;;;;8.57;6.83;;;27.60;68.40;;;;;;5050572;28;20474;-60
2023/06/03 11:44:33;;;;;;;11.60;8.20;;;27.30;68.20;;;;;;5058780;28;20489;-60
2023/06/03 11:46:59;;;;;;;7.77;6.47;;;27.30;69.00;;;;;;5069517;28;20491;-60
2023/06/03 11:49:26;;;;;;;10.17;7.43;;;27.20;68.60;;;;;;5062111;28;20850;-60
2023/06/03 11:51:58;;;;;;;9.97;8.00;;;27.20;66.80;;;;;;5072020;28;20480;-60
2023/06/03 11:54:26;;;;;;;10.37;6.77;;;27.20;67.70;;;;;;5058726;28;20476;-61
2023/06/03 11:56:56;;;;;;;11.30;7.37;;;27.30;70.40;;;;;;5061560;28;20490;-60
2023/06/03 11:59:28;;;;;;;8.03;7.23;;;27.40;71.00;;;;;;5081279;28;20844;-60
2023/06/03 12:02:00;;;;;;;9.90;7.03;;;27.30;68.30;;;;;;5065645;28;20747;-60
2023/06/03 12:04:27;;;;;;;13.30;8.40;;;27.30;70.40;;;;;;5072712;28;20471;-60
2023/06/03 12:06:55;;;;;;;10.07;6.97;;;27.40;67.30;;;;;;5060419;28;20501;-60
2023/06/03 12:09:23;;;;;;;14.13;7.10;;;27.50;69.10;;;;;;5067786;28;20505;-61
2023/06/03 12:11:52;;;;;;;9.37;7.53;;;27.60;70.30;;;;;;5069593;28;20489;-60
2023/06/03 12:14:38;;;;;;;8.77;7.20;;;27.50;67.10;;;;;;5062476;28;20480;-60
2023/06/03 12:17:10;;;;;;;11.37;8.10;;;27.70;69.00;;;;;;5051510;28;20885;-60
2023/06/03 12:19:39;;;;;;;8.77;7.93;;;27.70;70.40;;;;;;5059290;28;20456;-60
2023/06/03 12:22:06;;;;;;;9.50;6.83;;;27.70;67.60;;;;;;5061018;28;20868;-60
2023/06/03 12:24:33;;;;;;;14.53;8.10;;;27.70;67.50;;;;;;5067451;27;21013;-61
2023/06/03 12:27:22;;;;;;;7.40;6.20;;;27.80;68.00;;;;;;5066406;28;20489;-61
2023/06/03 12:29:51;;;;;;;11.33;7.63;;;28.00;68.50;;;;;;5060938;28;20457;-61
2023/06/03 12:32:18;;;;;;;9.30;7.20;;;27.90;66.40;;;;;;5056445;28;20488;-60
2023/06/03 12:34:46;;;;;;;10.37;7.57;;;27.90;67.10;;;;;;5053266;28;20458;-60
2023/06/03 12:37:26;;;;;;;9.90;7.67;;;27.90;67.00;;;;;;5072090;28;20478;-61
2023/06/03 12:39:56;;;;;;;8.77;7.10;;;28.00;67.70;;;;;;5066641;28;20473;-60
2023/06/03 12:42:36;;;;;;;7.80;7.07;;;28.00;66.60;;;;;;5059202;28;21017;-61
2023/06/03 12:45:03;;;;;;;7.77;7.00;;;28.10;65.50;;;;;;5077021;28;20486;-60
2023/06/03 12:47:41;;;;;;;15.40;7.27;;;28.10;67.00;;;;;;5058635;28;20524;-61
2023/06/03 12:50:09;;;;;;;9.73;7.47;;;28.10;66.80;;;;;;5053586;28;20474;-61
2023/06/03 12:52:38;;;;;;;11.70;7.93;;;28.30;67.60;;;;;;5073529;28;20824;-61